createdAt,value
2023-05-24T00:00:34.454Z,6.63
2023-05-24T00:03:03.071Z,6.57
2023-05-24T00:05:31.512Z,7.22
2023-05-24T00:07:59.516Z,6.30
2023-05-24T00:10:26.741Z,6.90
2023-05-24T00:12:53.905Z,7.03
2023-05-24T00:15:21.243Z,6.43
2023-05-24T00:17:48.436Z,6.38
2023-05-24T00:20:15.717Z,6.88
2023-05-24T00:22:42.932Z,6.50
2023-05-24T00:25:10.210Z,6.60
2023-05-24T00:27:37.810Z,6.32
2023-05-24T00:30:06.562Z,5.13
2023-05-24T00:32:43.319Z,5.80
2023-05-24T00:35:10.836Z,5.85
2023-05-24T00:37:38.107Z,6.70
2023-05-24T00:40:06.703Z,5.93
2023-05-24T00:42:34.157Z,6.53
2023-05-24T00:45:01.271Z,7.38
2023-05-24T00:47:31.245Z,6.03
2023-05-24T00:50:00.034Z,6.60
2023-05-24T00:52:27.328Z,6.13
2023-05-24T00:54:55.964Z,5.85
2023-05-24T00:57:24.092Z,5.60
2023-05-24T00:59:52.707Z,5.30
2023-05-24T01:02:21.616Z,6.10
2023-05-24T01:04:51.986Z,5.80
2023-05-24T01:07:27.365Z,6.53
2023-05-24T01:10:26.693Z,6.63
2023-05-24T01:13:21.575Z,5.65
2023-05-24T01:16:01.853Z,5.88
2023-05-24T01:18:35.066Z,5.70
2023-05-24T01:21:20.842Z,5.30
2023-05-24T01:24:10.866Z,5.65
2023-05-24T01:26:53.073Z,5.93
2023-05-24T01:29:20.685Z,6.45
2023-05-24T01:31:48.343Z,6.85
2023-05-24T01:34:15.778Z,5.50
2023-05-24T01:36:42.900Z,5.88
2023-05-24T01:39:12.185Z,6.50
2023-05-24T01:41:54.849Z,5.75
2023-05-24T01:44:44.089Z,5.65
2023-05-24T01:47:40.149Z,4.90
2023-05-24T01:50:31.803Z,5.88
2023-05-24T01:53:05.052Z,5.47
2023-05-24T01:55:33.709Z,4.95
2023-05-24T01:58:03.216Z,5.18
2023-05-24T02:00:31.585Z,4.95
2023-05-24T02:02:59.493Z,5.38
2023-05-24T02:05:26.710Z,5.43
2023-05-24T02:07:53.871Z,5.50
2023-05-24T02:10:21.089Z,5.60
2023-05-24T02:12:48.289Z,5.60
2023-05-24T02:15:15.502Z,5.82
2023-05-24T02:17:43.421Z,5.63
2023-05-24T02:20:13.588Z,6.07
2023-05-24T02:22:41.679Z,5.20
2023-05-24T02:25:08.977Z,5.80
2023-05-24T02:27:36.215Z,5.43
2023-05-24T02:30:03.562Z,5.13
2023-05-24T02:32:33.057Z,4.95
2023-05-24T02:35:01.952Z,5.75
2023-05-24T02:37:31.156Z,4.53
2023-05-24T02:39:58.354Z,4.97
2023-05-24T02:42:25.716Z,5.78
2023-05-24T02:44:53.001Z,5.63
2023-05-24T02:47:20.571Z,5.38
2023-05-24T02:49:47.715Z,5.93
2023-05-24T02:52:16.141Z,6.28
2023-05-24T02:54:43.265Z,5.05
2023-05-24T02:57:36.458Z,5.20
2023-05-24T03:00:06.678Z,5.17
2023-05-24T03:02:38.617Z,6.75
2023-05-24T03:05:07.239Z,5.97
2023-05-24T03:07:34.412Z,6.50
2023-05-24T03:10:01.664Z,5.75
2023-05-24T03:12:31.796Z,5.55
2023-05-24T03:14:59.098Z,6.70
2023-05-24T03:17:26.796Z,6.20
2023-05-24T03:19:54.176Z,6.20
2023-05-24T03:22:21.360Z,6.68
2023-05-24T03:24:48.937Z,6.30
2023-05-24T03:27:16.749Z,5.72
2023-05-24T03:29:43.970Z,5.95
2023-05-24T03:32:12.066Z,6.97
2023-05-24T03:34:39.298Z,6.55
2023-05-24T03:37:06.782Z,6.68
2023-05-24T03:39:34.176Z,6.05
2023-05-24T03:42:18.937Z,5.85
2023-05-24T03:44:46.099Z,6.10
2023-05-24T03:47:13.476Z,5.70
2023-05-24T03:49:40.635Z,6.30
2023-05-24T03:52:08.096Z,5.53
2023-05-24T03:54:35.166Z,6.35
2023-05-24T03:57:02.709Z,5.75
2023-05-24T03:59:31.030Z,5.78
2023-05-24T04:01:58.378Z,5.78
2023-05-24T04:04:25.635Z,5.75
2023-05-24T04:06:54.016Z,5.40
2023-05-24T04:09:22.809Z,5.18
2023-05-24T04:11:50.503Z,6.60
2023-05-24T04:14:17.617Z,6.05
2023-05-24T04:16:45.368Z,5.18
2023-05-24T04:19:12.862Z,6.43
2023-05-24T04:21:40.035Z,6.57
2023-05-24T04:24:07.327Z,4.97
2023-05-24T04:26:34.893Z,5.65
2023-05-24T04:29:02.038Z,5.78
2023-05-24T04:31:30.492Z,6.13
2023-05-24T04:33:59.281Z,4.70
2023-05-24T04:36:26.405Z,5.68
2023-05-24T04:38:56.269Z,4.50
2023-05-24T04:41:24.547Z,5.35
2023-05-24T04:43:51.869Z,5.20
2023-05-24T04:46:19.051Z,5.55
2023-05-24T04:48:46.292Z,5.63
2023-05-24T04:51:13.306Z,6.18
2023-05-24T04:53:40.657Z,5.47
2023-05-24T04:56:07.852Z,5.28
2023-05-24T04:58:36.248Z,6.13
2023-05-24T05:01:04.256Z,5.32
2023-05-24T05:03:31.804Z,5.38
2023-05-24T05:05:59.862Z,5.70
2023-05-24T05:08:27.069Z,5.00
2023-05-24T05:10:54.214Z,5.32
2023-05-24T05:13:21.374Z,4.88
2023-05-24T05:15:48.492Z,5.07
2023-05-24T05:18:16.777Z,7.03
2023-05-24T05:20:44.133Z,4.75
2023-05-24T05:23:11.441Z,5.82
2023-05-24T05:25:38.549Z,5.68
2023-05-24T05:28:05.831Z,5.78
2023-05-24T05:30:32.944Z,6.35
2023-05-24T05:33:00.248Z,5.85
2023-05-24T05:35:27.388Z,5.97
2023-05-24T05:37:54.494Z,6.25
2023-05-24T05:40:21.714Z,6.40
2023-05-24T05:42:51.308Z,6.93
2023-05-24T05:45:18.704Z,7.47
2023-05-24T05:47:45.890Z,5.82
2023-05-24T05:50:13.074Z,6.40
2023-05-24T05:52:40.242Z,5.55
2023-05-24T05:55:08.150Z,5.38
2023-05-24T05:57:35.436Z,6.55
2023-05-24T06:00:02.679Z,6.60
2023-05-24T06:02:40.034Z,6.97
2023-05-24T06:05:07.669Z,5.70
2023-05-24T06:07:36.006Z,6.07
2023-05-24T06:10:03.539Z,6.82
2023-05-24T06:12:32.981Z,7.53
2023-05-24T06:15:00.407Z,6.60
2023-05-24T06:17:28.552Z,5.53
2023-05-24T06:19:56.098Z,6.20
2023-05-24T06:22:23.667Z,4.93
2023-05-24T06:24:50.845Z,4.55
2023-05-24T06:27:17.963Z,4.57
2023-05-24T06:29:45.488Z,5.20
2023-05-24T06:32:12.881Z,4.82
2023-05-24T06:34:40.209Z,3.97
2023-05-24T06:37:10.461Z,5.22
2023-05-24T06:39:38.078Z,4.47
2023-05-24T06:42:05.604Z,4.47
2023-05-24T06:44:37.247Z,4.28
2023-05-24T06:47:05.953Z,4.55
2023-05-24T06:49:33.485Z,3.85
2023-05-24T06:52:00.541Z,3.97
2023-05-24T06:54:27.646Z,4.47
2023-05-24T06:56:54.747Z,4.40
2023-05-24T06:59:23.039Z,5.07
2023-05-24T07:01:53.555Z,4.10
2023-05-24T07:04:20.758Z,4.05
2023-05-24T07:06:48.201Z,4.20
2023-05-24T07:09:16.130Z,4.50
2023-05-24T07:11:43.407Z,4.28
2023-05-24T07:14:10.543Z,4.60
2023-05-24T07:16:37.787Z,4.65
2023-05-24T07:19:05.146Z,6.30
2023-05-24T07:21:32.437Z,5.07
2023-05-24T07:23:59.657Z,5.18
2023-05-24T07:26:26.877Z,6.07
2023-05-24T07:28:53.895Z,4.93
2023-05-24T07:31:23.439Z,4.90
2023-05-24T07:33:50.656Z,5.20
2023-05-24T07:36:18.049Z,5.55
2023-05-24T07:38:48.080Z,4.47
2023-05-24T07:41:20.234Z,5.78
2023-05-24T07:43:47.498Z,5.55
2023-05-24T07:46:15.311Z,6.40
2023-05-24T07:48:45.234Z,6.13
2023-05-24T07:51:41.632Z,4.97
2023-05-24T07:54:13.727Z,5.30
2023-05-24T07:56:44.754Z,6.20
2023-05-24T07:59:12.278Z,6.18
2023-05-24T08:01:39.757Z,5.65
2023-05-24T08:04:10.042Z,5.22
2023-05-24T08:06:37.627Z,6.53
2023-05-24T08:09:09.698Z,6.28
2023-05-24T08:11:37.182Z,5.95
2023-05-24T08:14:04.502Z,6.45
2023-05-24T08:16:32.838Z,6.45
2023-05-24T08:19:00.923Z,5.63
2023-05-24T08:21:32.156Z,7.18
2023-05-24T08:24:00.765Z,6.43
2023-05-24T08:26:28.290Z,6.57
2023-05-24T08:28:55.776Z,6.28
2023-05-24T08:31:23.273Z,6.40
2023-05-24T08:33:51.540Z,6.45
2023-05-24T08:36:19.116Z,5.40
2023-05-24T08:38:49.184Z,6.53
2023-05-24T08:41:16.554Z,6.00
2023-05-24T08:43:44.981Z,6.35
2023-05-24T08:46:15.460Z,5.55
2023-05-24T08:48:47.630Z,5.03
2023-05-24T08:51:16.406Z,4.43
2023-05-24T08:53:50.152Z,4.90
2023-05-24T08:56:18.599Z,5.35
2023-05-24T08:58:47.369Z,5.45
2023-05-24T09:01:21.046Z,5.15
2023-05-24T09:03:51.830Z,5.25
2023-05-24T09:06:23.102Z,5.68
2023-05-24T09:08:52.808Z,6.07
2023-05-24T09:11:23.264Z,6.90
2023-05-24T09:13:51.962Z,6.20
2023-05-24T09:16:19.758Z,7.00
2023-05-24T09:18:47.700Z,6.15
2023-05-24T09:21:15.629Z,6.82
2023-05-24T09:23:43.840Z,7.68
2023-05-24T09:26:11.963Z,6.25
2023-05-24T09:28:42.230Z,7.28
2023-05-24T09:31:09.669Z,6.05
2023-05-24T09:33:37.310Z,5.85
2023-05-24T09:36:06.750Z,7.30
2023-05-24T09:38:41.195Z,5.70
2023-05-24T09:47:42.274Z,6.88
2023-05-24T09:50:14.884Z,5.80
2023-05-24T09:52:42.457Z,5.70
2023-05-24T09:55:15.690Z,5.60
2023-05-24T09:58:02.884Z,6.20
2023-05-24T10:00:40.131Z,5.07
2023-05-24T10:03:14.836Z,6.30
2023-05-24T10:05:46.925Z,6.57
2023-05-24T10:08:16.157Z,5.38
2023-05-24T10:10:46.222Z,4.95
2023-05-24T10:13:17.926Z,5.35
2023-05-24T10:15:51.859Z,4.20
2023-05-24T10:18:20.098Z,4.10
2023-05-24T10:20:48.292Z,4.55
2023-05-24T10:23:21.858Z,4.13
2023-05-24T10:26:06.760Z,4.60
2023-05-24T10:28:57.347Z,3.78
2023-05-24T10:31:29.703Z,4.20
2023-05-24T10:34:07.102Z,4.80
2023-05-24T10:36:35.491Z,3.65
2023-05-24T10:39:04.358Z,4.18
2023-05-24T10:41:39.915Z,5.75
2023-05-24T10:44:13.553Z,4.85
2023-05-24T10:47:17.200Z,5.68
2023-05-24T10:49:53.016Z,3.80
2023-05-24T10:52:20.822Z,3.55
2023-05-24T10:55:19.534Z,3.53
2023-05-24T10:57:47.787Z,4.03
2023-05-24T11:00:33.977Z,4.63
2023-05-24T11:03:08.778Z,4.43
2023-05-24T11:05:59.832Z,4.22
2023-05-24T11:08:35.676Z,4.55
2023-05-24T11:13:41.536Z,4.97
2023-05-24T11:16:08.969Z,3.63
2023-05-24T11:18:40.267Z,4.45
2023-05-24T11:21:08.192Z,4.22
2023-05-24T11:23:38.274Z,4.18
2023-05-24T11:26:07.350Z,4.35
2023-05-24T11:28:38.008Z,4.72
2023-05-24T11:31:08.879Z,5.15
2023-05-24T11:33:42.701Z,4.50
2023-05-24T11:36:10.854Z,4.68
2023-05-24T11:38:37.957Z,5.15
2023-05-24T11:41:05.707Z,5.13
2023-05-24T11:43:33.265Z,6.55
2023-05-24T11:46:01.646Z,4.63
2023-05-24T11:48:29.971Z,5.43
2023-05-24T11:50:58.065Z,4.40
2023-05-24T11:53:25.468Z,4.30
2023-05-24T11:55:56.770Z,5.32
2023-05-24T11:58:26.516Z,5.72
2023-05-24T12:00:53.683Z,5.45
2023-05-24T12:03:21.944Z,5.72
2023-05-24T12:05:52.948Z,6.03
2023-05-24T12:08:20.599Z,5.80
2023-05-24T12:10:49.231Z,5.32
2023-05-24T12:13:25.124Z,6.95
2023-05-24T12:15:57.033Z,6.50
2023-05-24T12:18:29.915Z,6.07
2023-05-24T12:20:57.529Z,7.30
2023-05-24T12:23:28.016Z,6.55
2023-05-24T12:26:02.225Z,6.15
2023-05-24T12:28:37.033Z,6.93
2023-05-24T12:31:05.810Z,6.78
2023-05-24T12:33:33.844Z,6.75
2023-05-24T12:36:01.512Z,6.38
2023-05-24T12:38:28.761Z,6.00
2023-05-24T12:41:11.440Z,6.53
2023-05-24T12:43:41.039Z,6.38
2023-05-24T12:46:08.073Z,6.65
2023-05-24T12:48:35.581Z,5.95
2023-05-24T12:51:03.291Z,6.38
2023-05-24T12:53:30.329Z,5.88
2023-05-24T12:55:57.606Z,6.25
2023-05-24T12:58:25.289Z,5.90
2023-05-24T13:00:52.684Z,6.30
2023-05-24T13:03:19.960Z,6.30
2023-05-24T13:05:47.464Z,4.78
2023-05-24T13:08:14.863Z,5.85
2023-05-24T13:10:42.334Z,5.35
2023-05-24T13:13:09.620Z,5.35
2023-05-24T13:15:38.164Z,6.35
2023-05-24T13:18:05.779Z,5.15
2023-05-24T13:20:33.089Z,4.75
2023-05-24T13:23:00.941Z,4.53
2023-05-24T13:25:29.307Z,3.85
2023-05-24T13:27:56.532Z,3.97
2023-05-24T13:30:27.870Z,4.00
2023-05-24T13:32:55.771Z,4.85
2023-05-24T13:35:23.160Z,3.83
2023-05-24T13:37:51.273Z,3.83
2023-05-24T13:40:18.697Z,4.68
2023-05-24T13:42:45.916Z,3.75
2023-05-24T13:45:17.158Z,4.45
2023-05-24T13:47:44.888Z,4.47
2023-05-24T13:50:12.367Z,3.92
2023-05-24T13:52:39.769Z,3.78
2023-05-24T13:55:07.578Z,3.95
2023-05-24T13:57:50.505Z,15.45
2023-05-24T14:00:19.613Z,5.80
2023-05-24T14:02:47.010Z,5.38
2023-05-24T14:05:26.548Z,3.75
2023-05-24T14:07:57.661Z,4.60
2023-05-24T14:10:25.128Z,4.15
2023-05-24T14:13:07.949Z,3.53
2023-05-24T14:15:39.379Z,4.05
2023-05-24T14:18:08.651Z,3.85
2023-05-24T14:20:38.367Z,3.90
2023-05-24T14:23:07.613Z,3.70
2023-05-24T14:25:34.954Z,4.18
2023-05-24T14:28:01.996Z,3.38
2023-05-24T14:30:32.105Z,3.63
2023-05-24T14:33:00.957Z,3.92
2023-05-24T14:35:28.382Z,4.28
2023-05-24T14:37:55.428Z,6.80
2023-05-24T14:40:22.618Z,4.07
2023-05-24T14:42:49.658Z,3.90
2023-05-24T14:45:16.973Z,3.60
2023-05-24T14:47:44.119Z,3.33
2023-05-24T14:50:11.690Z,3.42
2023-05-24T14:52:38.766Z,3.53
2023-05-24T14:55:06.210Z,3.58
2023-05-24T14:57:33.386Z,3.92
2023-05-24T15:00:00.721Z,3.88
2023-05-24T15:02:29.721Z,2.72
2023-05-24T15:04:56.910Z,4.18
2023-05-24T15:07:24.420Z,4.18
2023-05-24T15:09:51.493Z,3.30
2023-05-24T15:12:18.588Z,3.28
2023-05-24T15:14:46.218Z,3.90
2023-05-24T15:17:13.809Z,4.05
2023-05-24T15:19:41.388Z,3.45
2023-05-24T15:22:08.699Z,3.15
2023-05-24T15:24:37.925Z,3.47
2023-05-24T15:27:05.363Z,3.53
2023-05-24T15:29:32.532Z,3.25
2023-05-24T15:32:01.562Z,4.05
2023-05-24T15:34:28.900Z,4.10
2023-05-24T15:36:56.495Z,4.18
2023-05-24T15:39:23.670Z,4.22
2023-05-24T15:41:50.767Z,4.53
2023-05-24T15:44:18.012Z,4.80
2023-05-24T15:46:45.167Z,4.32
2023-05-24T15:49:12.239Z,3.42
2023-05-24T15:54:09.282Z,3.67
2023-05-24T15:56:39.364Z,3.50
2023-05-24T15:59:06.667Z,4.38
2023-05-24T16:01:33.810Z,3.83
2023-05-24T16:04:01.201Z,4.45
2023-05-24T16:06:28.936Z,4.85
2023-05-24T16:08:56.069Z,3.85
2023-05-24T16:11:24.547Z,3.85
2023-05-24T16:13:56.464Z,4.55
2023-05-24T16:16:23.840Z,4.63
2023-05-24T16:18:51.265Z,4.20
2023-05-24T16:21:18.350Z,3.35
2023-05-24T16:23:46.222Z,4.68
2023-05-24T16:26:14.077Z,4.47
2023-05-24T16:28:41.507Z,3.67
2023-05-24T16:31:09.045Z,4.53
2023-05-24T16:33:36.294Z,3.67
2023-05-24T16:36:04.745Z,3.88
2023-05-24T16:38:32.887Z,2.90
2023-05-24T16:40:59.976Z,4.22
2023-05-24T16:43:27.205Z,3.90
2023-05-24T16:45:55.434Z,4.80
2023-05-24T16:48:28.627Z,4.80
2023-05-24T16:50:56.860Z,4.78
2023-05-24T16:53:26.309Z,4.55
2023-05-24T16:55:56.365Z,3.90
2023-05-24T16:58:24.810Z,3.83
2023-05-24T17:00:54.422Z,4.05
2023-05-24T17:03:28.077Z,4.18
2023-05-24T17:05:57.999Z,4.60
2023-05-24T17:08:28.627Z,3.65
2023-05-24T17:10:59.171Z,4.20
2023-05-24T17:13:27.629Z,4.50
2023-05-24T17:15:55.981Z,4.95
2023-05-24T17:18:30.478Z,4.25
2023-05-24T17:20:59.933Z,27.00
2023-05-24T17:23:28.891Z,7.57
2023-05-24T17:25:56.060Z,5.53
2023-05-24T17:28:27.691Z,5.30
2023-05-24T17:30:56.167Z,5.18
2023-05-24T17:33:25.307Z,4.05
2023-05-24T17:35:52.883Z,4.60
2023-05-24T17:38:20.344Z,5.18
2023-05-24T17:40:56.103Z,4.28
2023-05-24T17:45:51.125Z,5.68
2023-05-24T17:48:18.292Z,5.25
2023-05-24T17:50:48.129Z,4.97
2023-05-24T17:53:30.344Z,5.15
2023-05-24T17:55:58.840Z,5.07
2023-05-24T17:58:26.238Z,5.40
2023-05-24T18:00:53.523Z,5.47
2023-05-24T18:03:20.936Z,5.97
2023-05-24T18:05:48.251Z,4.57
2023-05-24T18:08:15.510Z,5.00
2023-05-24T18:10:42.682Z,6.05
2023-05-24T18:13:09.995Z,3.53
2023-05-24T18:15:37.541Z,4.63
2023-05-24T18:18:04.879Z,5.38
2023-05-24T18:20:32.473Z,5.05
2023-05-24T18:23:01.826Z,4.38
2023-05-24T18:25:29.171Z,4.85
2023-05-24T18:27:57.030Z,6.32
2023-05-24T18:30:24.154Z,5.03
2023-05-24T18:33:04.351Z,6.20
2023-05-24T18:35:32.957Z,5.68
2023-05-24T18:38:00.181Z,5.70
2023-05-24T18:40:27.621Z,5.75
2023-05-24T18:42:55.586Z,6.22
2023-05-24T18:45:23.178Z,7.18
2023-05-24T18:47:53.133Z,5.45
2023-05-24T18:50:23.636Z,7.63
2023-05-24T18:52:51.027Z,6.03
2023-05-24T18:55:18.289Z,6.15
2023-05-24T18:57:45.577Z,7.55
2023-05-24T19:00:25.789Z,6.35
2023-05-24T19:02:55.872Z,7.50
2023-05-24T19:05:23.136Z,6.78
2023-05-24T19:07:53.011Z,6.80
2023-05-24T19:10:20.929Z,7.53
2023-05-24T19:12:50.948Z,7.57
2023-05-24T19:15:18.511Z,7.00
2023-05-24T19:17:45.723Z,6.47
2023-05-24T19:20:13.517Z,5.93
2023-05-24T19:22:40.633Z,6.35
2023-05-24T19:25:08.368Z,6.57
2023-05-24T19:27:37.870Z,6.50
2023-05-24T19:30:07.717Z,6.60
2023-05-24T19:32:35.860Z,7.25
2023-05-24T19:35:03.354Z,7.10
2023-05-24T19:37:32.075Z,7.15
2023-05-24T19:40:00.370Z,6.78
2023-05-24T19:42:27.501Z,6.85
2023-05-24T19:44:54.894Z,8.63
2023-05-24T19:47:22.111Z,7.13
2023-05-24T19:49:49.539Z,8.43
2023-05-24T19:52:22.046Z,8.13
2023-05-24T19:54:50.817Z,7.80
2023-05-24T19:57:17.958Z,8.35
2023-05-24T19:59:45.014Z,6.80
2023-05-24T20:02:12.335Z,6.85
2023-05-24T20:04:42.019Z,7.53
2023-05-24T20:07:09.152Z,6.95
2023-05-24T20:09:36.445Z,7.22
2023-05-24T20:12:03.592Z,7.00
2023-05-24T20:14:31.844Z,7.32
2023-05-24T20:16:59.577Z,8.15
2023-05-24T20:19:27.280Z,7.38
2023-05-24T20:21:54.643Z,7.38
2023-05-24T20:24:22.036Z,7.95
2023-05-24T20:26:49.181Z,8.32
2023-05-24T20:29:16.362Z,7.57
2023-05-24T20:31:43.630Z,7.95
2023-05-24T20:34:10.797Z,7.95
2023-05-24T20:36:38.621Z,7.55
2023-05-24T20:39:05.709Z,7.18
2023-05-24T20:41:34.183Z,9.07
2023-05-24T20:44:01.677Z,7.47
2023-05-24T20:46:29.282Z,8.55
2023-05-24T20:48:57.470Z,8.43
2023-05-24T20:51:24.902Z,8.32
2023-05-24T20:53:53.239Z,8.50
2023-05-24T20:56:23.113Z,8.00
2023-05-24T20:58:53.202Z,8.27
2023-05-24T21:01:21.286Z,9.70
2023-05-24T21:03:48.424Z,9.00
2023-05-24T21:06:15.673Z,8.15
2023-05-24T21:08:43.562Z,9.55
2023-05-24T21:11:10.785Z,8.80
2023-05-24T21:13:38.234Z,9.65
2023-05-24T21:16:05.665Z,8.38
2023-05-24T21:18:33.632Z,8.55
2023-05-24T21:21:01.224Z,9.05
2023-05-24T21:23:30.385Z,8.82
2023-05-24T21:25:57.498Z,9.70
2023-05-24T21:28:24.647Z,9.93
2023-05-24T21:30:51.770Z,8.88
2023-05-24T21:33:20.777Z,9.55
2023-05-24T21:35:48.121Z,9.85
2023-05-24T21:38:15.490Z,10.00
2023-05-24T21:40:42.711Z,10.52
2023-05-24T21:43:12.432Z,10.02
2023-05-24T21:45:40.603Z,9.50
2023-05-24T21:48:08.992Z,9.00
2023-05-24T21:50:37.133Z,10.13
2023-05-24T21:53:04.426Z,9.43
2023-05-24T21:55:31.615Z,9.48
2023-05-24T21:57:58.750Z,11.02
2023-05-24T22:00:27.095Z,10.63
2023-05-24T22:02:54.584Z,11.75
2023-05-24T22:05:21.668Z,11.50
2023-05-24T22:07:48.828Z,14.38
2023-05-24T22:10:16.052Z,13.00
2023-05-24T22:12:43.352Z,13.48
2023-05-24T22:15:11.006Z,14.00
2023-05-24T22:17:41.011Z,12.30
2023-05-24T22:20:09.337Z,11.93
2023-05-24T22:22:40.281Z,12.93
2023-05-24T22:25:08.877Z,11.48
2023-05-24T22:27:36.124Z,12.40
2023-05-24T22:30:03.578Z,13.00
2023-05-24T22:32:33.645Z,11.98
2023-05-24T22:35:01.165Z,11.60
2023-05-24T22:37:32.549Z,11.88
2023-05-24T22:39:59.980Z,10.98
2023-05-24T22:42:27.173Z,12.15
2023-05-24T22:44:54.247Z,13.35
2023-05-24T22:47:23.028Z,11.98
2023-05-24T22:49:54.227Z,12.85
2023-05-24T22:52:21.936Z,11.20
2023-05-24T22:54:48.912Z,11.13
2023-05-24T22:57:21.587Z,12.40
2023-05-24T22:59:49.575Z,11.05
2023-05-24T23:02:17.020Z,12.15
2023-05-24T23:04:47.627Z,11.23
2023-05-24T23:07:15.568Z,12.85
2023-05-24T23:09:44.025Z,12.23
2023-05-24T23:12:11.903Z,12.02
2023-05-24T23:14:41.771Z,11.15
2023-05-24T23:17:17.277Z,11.55
2023-05-24T23:19:44.623Z,11.93
2023-05-24T23:22:13.078Z,13.25
2023-05-24T23:24:44.951Z,10.95
2023-05-24T23:27:12.189Z,11.10
2023-05-24T23:29:39.415Z,10.50
2023-05-24T23:32:10.737Z,10.85
2023-05-24T23:34:38.077Z,12.02
2023-05-24T23:37:05.786Z,11.55
2023-05-24T23:39:33.167Z,10.20
2023-05-24T23:42:02.660Z,9.93
2023-05-24T23:44:30.247Z,10.88
2023-05-24T23:46:58.109Z,11.40
2023-05-24T23:49:25.879Z,10.68
2023-05-24T23:51:53.348Z,12.10
2023-05-24T23:54:20.555Z,11.32
2023-05-24T23:56:47.930Z,11.32
2023-05-24T23:59:17.038Z,10.52
